Terminal Aerodrome Forecast
Issued by NWS

Home | Current Version | Previous Version | Text Only | Print | Product List | Glossary On
Versions: 1 2 3 4 5 6 7 8 9 10 11 12 13 14 15 16 17
000
FTUS42 KMLB 301135
TAFFPR
TAF
KFPR 301135Z 3012/3112 21003KT 6SM BR FEW020 BKN060
     FM301400 23008KT P6SM SCT020 SCT050 BKN250
     FM301800 21010KT P6SM VCTS SCT035CB SCT080 BKN250
      TEMPO 3019/3021 3SM TSRA BKN030CB
     FM310000 25004KT P6SM FEW035 BKN250=

USA.gov is the U.S. government's official web portal to all federal, state and local government web resources and services.